sensor_id;sensor_type;location;lat;lon;timestamp;P1;durP1;ratioP1;P2;durP2;ratioP2
54683;SDS011;40582;53.100;6.686;2023-04-25T00:01:24;27.83;;;5.10;;
54683;SDS011;40582;53.100;6.686;2023-04-25T00:03:50;37.33;;;7.47;;
54683;SDS011;40582;53.100;6.686;2023-04-25T00:06:16;37.58;;;6.40;;
54683;SDS011;40582;53.100;6.686;2023-04-25T00:08:43;28.00;;;6.13;;
54683;SDS011;40582;53.100;6.686;2023-04-25T00:11:08;29.23;;;6.15;;
54683;SDS011;40582;53.100;6.686;2023-04-25T00:13:34;34.78;;;6.25;;
54683;SDS011;40582;53.100;6.686;2023-04-25T00:16:00;30.85;;;6.10;;
54683;SDS011;40582;53.100;6.686;2023-04-25T00:18:27;29.77;;;7.13;;
54683;SDS011;40582;53.100;6.686;2023-04-25T00:20:54;29.35;;;6.22;;
54683;SDS011;40582;53.100;6.686;2023-04-25T00:23:20;36.05;;;6.78;;
54683;SDS011;40582;53.100;6.686;2023-04-25T00:25:47;31.58;;;6.05;;
54683;SDS011;40582;53.100;6.686;2023-04-25T00:28:14;30.50;;;6.75;;
54683;SDS011;40582;53.100;6.686;2023-04-25T00:30:40;36.05;;;6.70;;
54683;SDS011;40582;53.100;6.686;2023-04-25T00:33:07;36.92;;;6.15;;
54683;SDS011;40582;53.100;6.686;2023-04-25T00:35:33;26.92;;;5.80;;
54683;SDS011;40582;53.100;6.686;2023-04-25T00:37:59;30.38;;;6.28;;
54683;SDS011;40582;53.100;6.686;2023-04-25T00:40:25;37.08;;;6.45;;
54683;SDS011;40582;53.100;6.686;2023-04-25T00:42:52;33.38;;;6.20;;
54683;SDS011;40582;53.100;6.686;2023-04-25T00:45:18;26.35;;;6.07;;
54683;SDS011;40582;53.100;6.686;2023-04-25T00:47:44;36.63;;;6.78;;
54683;SDS011;40582;53.100;6.686;2023-04-25T00:50:10;35.78;;;6.47;;
54683;SDS011;40582;53.100;6.686;2023-04-25T00:52:37;35.47;;;5.88;;
54683;SDS011;40582;53.100;6.686;2023-04-25T00:55:05;32.92;;;6.18;;
54683;SDS011;40582;53.100;6.686;2023-04-25T00:57:32;37.17;;;6.38;;
54683;SDS011;40582;53.100;6.686;2023-04-25T00:59:58;36.92;;;5.38;;
54683;SDS011;40582;53.100;6.686;2023-04-25T01:02:24;33.42;;;6.18;;
54683;SDS011;40582;53.100;6.686;2023-04-25T01:04:52;30.90;;;5.97;;
54683;SDS011;40582;53.100;6.686;2023-04-25T01:07:18;26.00;;;5.28;;
54683;SDS011;40582;53.100;6.686;2023-04-25T01:09:44;32.22;;;6.05;;
54683;SDS011;40582;53.100;6.686;2023-04-25T01:12:11;27.00;;;5.97;;
54683;SDS011;40582;53.100;6.686;2023-04-25T01:14:38;34.50;;;6.53;;
54683;SDS011;40582;53.100;6.686;2023-04-25T01:17:05;26.90;;;5.88;;
54683;SDS011;40582;53.100;6.686;2023-04-25T01:19:32;28.45;;;5.63;;
54683;SDS011;40582;53.100;6.686;2023-04-25T01:21:58;22.63;;;5.38;;
54683;SDS011;40582;53.100;6.686;2023-04-25T01:24:25;23.67;;;4.65;;
54683;SDS011;40582;53.100;6.686;2023-04-25T01:26:51;29.83;;;5.35;;
54683;SDS011;40582;53.100;6.686;2023-04-25T01:29:20;22.70;;;5.55;;
54683;SDS011;40582;53.100;6.686;2023-04-25T01:31:46;30.25;;;5.18;;
54683;SDS011;40582;53.100;6.686;2023-04-25T01:34:12;22.75;;;4.45;;
54683;SDS011;40582;53.100;6.686;2023-04-25T01:36:39;28.73;;;5.00;;
54683;SDS011;40582;53.100;6.686;2023-04-25T01:39:05;23.17;;;4.85;;
54683;SDS011;40582;53.100;6.686;2023-04-25T01:41:32;17.42;;;4.57;;
54683;SDS011;40582;53.100;6.686;2023-04-25T01:43:59;27.25;;;5.00;;
54683;SDS011;40582;53.100;6.686;2023-04-25T01:46:26;22.58;;;4.93;;
54683;SDS011;40582;53.100;6.686;2023-04-25T01:48:52;26.25;;;5.07;;
54683;SDS011;40582;53.100;6.686;2023-04-25T01:51:18;31.08;;;4.88;;
54683;SDS011;40582;53.100;6.686;2023-04-25T01:53:44;26.27;;;5.10;;
54683;SDS011;40582;53.100;6.686;2023-04-25T01:56:10;25.50;;;4.47;;
54683;SDS011;40582;53.100;6.686;2023-04-25T01:58:36;25.50;;;5.05;;
54683;SDS011;40582;53.100;6.686;2023-04-25T02:01:01;27.27;;;4.88;;
54683;SDS011;40582;53.100;6.686;2023-04-25T02:03:28;24.85;;;4.32;;
54683;SDS011;40582;53.100;6.686;2023-04-25T02:05:55;21.48;;;4.75;;
54683;SDS011;40582;53.100;6.686;2023-04-25T02:08:20;22.63;;;4.95;;
54683;SDS011;40582;53.100;6.686;2023-04-25T02:10:46;20.02;;;4.68;;
54683;SDS011;40582;53.100;6.686;2023-04-25T02:13:12;23.23;;;4.75;;
54683;SDS011;40582;53.100;6.686;2023-04-25T02:15:38;30.80;;;5.70;;
54683;SDS011;40582;53.100;6.686;2023-04-25T02:18:03;18.45;;;4.70;;
54683;SDS011;40582;53.100;6.686;2023-04-25T02:20:31;22.05;;;4.30;;
54683;SDS011;40582;53.100;6.686;2023-04-25T02:22:57;26.45;;;4.35;;
54683;SDS011;40582;53.100;6.686;2023-04-25T02:25:23;26.92;;;5.25;;
54683;SDS011;40582;53.100;6.686;2023-04-25T02:27:49;26.15;;;4.93;;
54683;SDS011;40582;53.100;6.686;2023-04-25T02:30:16;23.90;;;5.60;;
54683;SDS011;40582;53.100;6.686;2023-04-25T02:32:42;25.58;;;4.97;;
54683;SDS011;40582;53.100;6.686;2023-04-25T02:35:08;17.27;;;4.35;;
54683;SDS011;40582;53.100;6.686;2023-04-25T02:37:34;19.88;;;4.28;;
54683;SDS011;40582;53.100;6.686;2023-04-25T02:40:01;19.27;;;4.63;;
54683;SDS011;40582;53.100;6.686;2023-04-25T02:42:29;22.45;;;4.53;;
54683;SDS011;40582;53.100;6.686;2023-04-25T02:44:55;24.88;;;4.40;;
54683;SDS011;40582;53.100;6.686;2023-04-25T02:47:20;26.00;;;5.03;;
54683;SDS011;40582;53.100;6.686;2023-04-25T02:49:46;24.30;;;4.20;;
54683;SDS011;40582;53.100;6.686;2023-04-25T02:52:12;23.65;;;4.47;;
54683;SDS011;40582;53.100;6.686;2023-04-25T02:54:39;23.90;;;4.63;;
54683;SDS011;40582;53.100;6.686;2023-04-25T02:57:05;18.80;;;4.57;;
54683;SDS011;40582;53.100;6.686;2023-04-25T02:59:31;25.25;;;4.40;;
54683;SDS011;40582;53.100;6.686;2023-04-25T03:01:57;22.70;;;3.65;;
54683;SDS011;40582;53.100;6.686;2023-04-25T03:04:23;24.90;;;5.22;;
54683;SDS011;40582;53.100;6.686;2023-04-25T03:06:49;26.25;;;4.70;;
54683;SDS011;40582;53.100;6.686;2023-04-25T03:09:16;31.38;;;4.75;;
54683;SDS011;40582;53.100;6.686;2023-04-25T03:11:42;23.40;;;4.15;;
54683;SDS011;40582;53.100;6.686;2023-04-25T03:14:09;23.23;;;4.28;;
54683;SDS011;40582;53.100;6.686;2023-04-25T03:16:35;25.95;;;5.40;;
54683;SDS011;40582;53.100;6.686;2023-04-25T03:19:01;23.90;;;4.80;;
54683;SDS011;40582;53.100;6.686;2023-04-25T03:21:27;25.08;;;4.53;;
54683;SDS011;40582;53.100;6.686;2023-04-25T03:23:53;30.08;;;5.28;;
54683;SDS011;40582;53.100;6.686;2023-04-25T03:26:19;21.80;;;4.15;;
54683;SDS011;40582;53.100;6.686;2023-04-25T03:28:45;23.48;;;4.38;;
54683;SDS011;40582;53.100;6.686;2023-04-25T03:31:11;19.00;;;4.25;;
54683;SDS011;40582;53.100;6.686;2023-04-25T03:33:37;31.40;;;4.60;;
54683;SDS011;40582;53.100;6.686;2023-04-25T03:36:02;14.65;;;3.80;;
54683;SDS011;40582;53.100;6.686;2023-04-25T03:38:28;19.70;;;3.85;;
54683;SDS011;40582;53.100;6.686;2023-04-25T03:40:54;20.23;;;4.47;;
54683;SDS011;40582;53.100;6.686;2023-04-25T03:43:21;24.70;;;4.63;;
54683;SDS011;40582;53.100;6.686;2023-04-25T03:45:47;20.77;;;3.78;;
54683;SDS011;40582;53.100;6.686;2023-04-25T03:48:12;17.85;;;3.92;;
54683;SDS011;40582;53.100;6.686;2023-04-25T03:50:38;20.13;;;3.83;;
54683;SDS011;40582;53.100;6.686;2023-04-25T03:53:04;23.65;;;4.53;;
54683;SDS011;40582;53.100;6.686;2023-04-25T03:55:29;21.23;;;4.03;;
54683;SDS011;40582;53.100;6.686;2023-04-25T03:57:56;18.92;;;3.75;;
54683;SDS011;40582;53.100;6.686;2023-04-25T04:00:23;16.58;;;3.65;;
54683;SDS011;40582;53.100;6.686;2023-04-25T04:02:49;18.75;;;3.90;;
54683;SDS011;40582;53.100;6.686;2023-04-25T04:05:14;16.75;;;3.83;;
54683;SDS011;40582;53.100;6.686;2023-04-25T04:07:40;16.00;;;3.80;;
54683;SDS011;40582;53.100;6.686;2023-04-25T04:10:08;18.98;;;3.50;;
54683;SDS011;40582;53.100;6.686;2023-04-25T04:12:34;23.00;;;4.10;;
54683;SDS011;40582;53.100;6.686;2023-04-25T04:15:01;21.55;;;5.05;;
54683;SDS011;40582;53.100;6.686;2023-04-25T04:17:28;19.92;;;3.65;;
54683;SDS011;40582;53.100;6.686;2023-04-25T04:19:55;15.70;;;3.83;;
54683;SDS011;40582;53.100;6.686;2023-04-25T04:22:21;23.00;;;4.20;;
54683;SDS011;40582;53.100;6.686;2023-04-25T04:24:47;16.98;;;4.00;;
54683;SDS011;40582;53.100;6.686;2023-04-25T04:27:15;22.60;;;4.65;;
54683;SDS011;40582;53.100;6.686;2023-04-25T04:29:42;15.38;;;3.78;;
54683;SDS011;40582;53.100;6.686;2023-04-25T04:32:08;24.98;;;4.07;;
54683;SDS011;40582;53.100;6.686;2023-04-25T04:34:34;15.80;;;3.08;;
54683;SDS011;40582;53.100;6.686;2023-04-25T04:37:00;20.15;;;4.47;;
54683;SDS011;40582;53.100;6.686;2023-04-25T04:39:26;17.50;;;4.13;;
54683;SDS011;40582;53.100;6.686;2023-04-25T04:41:52;15.52;;;3.67;;
54683;SDS011;40582;53.100;6.686;2023-04-25T04:44:18;13.00;;;3.40;;
54683;SDS011;40582;53.100;6.686;2023-04-25T04:46:45;19.40;;;3.85;;
54683;SDS011;40582;53.100;6.686;2023-04-25T04:49:11;17.30;;;3.97;;
54683;SDS011;40582;53.100;6.686;2023-04-25T04:51:38;15.45;;;3.20;;
54683;SDS011;40582;53.100;6.686;2023-04-25T04:54:05;11.55;;;3.30;;
54683;SDS011;40582;53.100;6.686;2023-04-25T04:56:31;19.15;;;3.83;;
54683;SDS011;40582;53.100;6.686;2023-04-25T04:58:57;15.88;;;3.70;;
54683;SDS011;40582;53.100;6.686;2023-04-25T05:01:24;16.73;;;3.70;;
54683;SDS011;40582;53.100;6.686;2023-04-25T05:03:51;18.08;;;4.22;;
54683;SDS011;40582;53.100;6.686;2023-04-25T05:06:18;16.75;;;3.60;;
54683;SDS011;40582;53.100;6.686;2023-04-25T05:08:44;17.52;;;4.07;;
54683;SDS011;40582;53.100;6.686;2023-04-25T05:11:10;26.20;;;4.43;;
54683;SDS011;40582;53.100;6.686;2023-04-25T05:13:36;19.75;;;3.75;;
54683;SDS011;40582;53.100;6.686;2023-04-25T05:16:02;17.27;;;3.80;;
54683;SDS011;40582;53.100;6.686;2023-04-25T05:18:28;20.40;;;5.03;;
54683;SDS011;40582;53.100;6.686;2023-04-25T05:20:54;25.00;;;4.35;;
54683;SDS011;40582;53.100;6.686;2023-04-25T05:23:20;24.13;;;4.00;;
54683;SDS011;40582;53.100;6.686;2023-04-25T05:25:46;24.23;;;4.10;;
54683;SDS011;40582;53.100;6.686;2023-04-25T05:28:12;22.25;;;3.97;;
54683;SDS011;40582;53.100;6.686;2023-04-25T05:30:38;17.33;;;3.55;;
54683;SDS011;40582;53.100;6.686;2023-04-25T05:33:04;14.40;;;3.50;;
54683;SDS011;40582;53.100;6.686;2023-04-25T05:35:30;12.60;;;2.97;;
54683;SDS011;40582;53.100;6.686;2023-04-25T05:37:56;11.93;;;2.90;;
54683;SDS011;40582;53.100;6.686;2023-04-25T05:40:22;14.77;;;2.97;;
54683;SDS011;40582;53.100;6.686;2023-04-25T05:42:47;14.98;;;3.55;;
54683;SDS011;40582;53.100;6.686;2023-04-25T05:45:13;22.45;;;4.50;;
54683;SDS011;40582;53.100;6.686;2023-04-25T05:47:39;12.68;;;3.88;;
54683;SDS011;40582;53.100;6.686;2023-04-25T05:50:05;14.38;;;3.60;;
54683;SDS011;40582;53.100;6.686;2023-04-25T05:52:31;27.98;;;6.10;;
54683;SDS011;40582;53.100;6.686;2023-04-25T05:54:57;14.95;;;3.60;;
54683;SDS011;40582;53.100;6.686;2023-04-25T05:57:23;22.52;;;4.20;;
54683;SDS011;40582;53.100;6.686;2023-04-25T05:59:50;19.20;;;4.05;;
54683;SDS011;40582;53.100;6.686;2023-04-25T06:02:17;16.27;;;3.72;;
54683;SDS011;40582;53.100;6.686;2023-04-25T06:04:43;17.83;;;3.95;;
54683;SDS011;40582;53.100;6.686;2023-04-25T06:07:09;15.02;;;3.50;;
54683;SDS011;40582;53.100;6.686;2023-04-25T06:09:35;17.02;;;3.60;;
54683;SDS011;40582;53.100;6.686;2023-04-25T06:12:01;17.10;;;3.38;;
54683;SDS011;40582;53.100;6.686;2023-04-25T06:14:26;22.02;;;3.90;;
54683;SDS011;40582;53.100;6.686;2023-04-25T06:16:52;19.90;;;3.55;;
54683;SDS011;40582;53.100;6.686;2023-04-25T06:19:18;16.10;;;3.42;;
54683;SDS011;40582;53.100;6.686;2023-04-25T06:21:44;16.05;;;3.35;;
54683;SDS011;40582;53.100;6.686;2023-04-25T06:24:10;13.82;;;3.10;;
54683;SDS011;40582;53.100;6.686;2023-04-25T06:26:35;14.40;;;3.38;;
54683;SDS011;40582;53.100;6.686;2023-04-25T06:29:01;15.70;;;3.08;;
54683;SDS011;40582;53.100;6.686;2023-04-25T06:31:27;12.00;;;2.58;;
54683;SDS011;40582;53.100;6.686;2023-04-25T06:33:54;18.52;;;3.47;;
54683;SDS011;40582;53.100;6.686;2023-04-25T06:36:23;12.38;;;3.05;;
54683;SDS011;40582;53.100;6.686;2023-04-25T06:38:50;12.35;;;3.13;;
54683;SDS011;40582;53.100;6.686;2023-04-25T06:41:17;16.02;;;3.45;;
54683;SDS011;40582;53.100;6.686;2023-04-25T06:43:43;21.10;;;3.65;;
54683;SDS011;40582;53.100;6.686;2023-04-25T06:46:09;18.85;;;3.33;;
54683;SDS011;40582;53.100;6.686;2023-04-25T06:48:36;11.68;;;3.38;;
54683;SDS011;40582;53.100;6.686;2023-04-25T06:51:01;18.77;;;3.58;;
54683;SDS011;40582;53.100;6.686;2023-04-25T06:53:27;17.88;;;3.70;;
54683;SDS011;40582;53.100;6.686;2023-04-25T06:55:53;17.55;;;3.25;;
54683;SDS011;40582;53.100;6.686;2023-04-25T06:58:19;16.92;;;3.35;;
54683;SDS011;40582;53.100;6.686;2023-04-25T07:00:44;21.27;;;3.78;;
54683;SDS011;40582;53.100;6.686;2023-04-25T07:03:10;16.63;;;3.30;;
54683;SDS011;40582;53.100;6.686;2023-04-25T07:05:36;13.25;;;3.10;;
54683;SDS011;40582;53.100;6.686;2023-04-25T07:08:02;17.02;;;3.08;;
54683;SDS011;40582;53.100;6.686;2023-04-25T07:10:28;16.25;;;3.17;;
54683;SDS011;40582;53.100;6.686;2023-04-25T07:12:54;16.83;;;3.17;;
54683;SDS011;40582;53.100;6.686;2023-04-25T07:15:19;13.45;;;2.88;;
54683;SDS011;40582;53.100;6.686;2023-04-25T07:17:45;8.40;;;2.67;;
54683;SDS011;40582;53.100;6.686;2023-04-25T07:20:12;13.88;;;2.78;;
54683;SDS011;40582;53.100;6.686;2023-04-25T07:22:38;12.10;;;2.85;;
54683;SDS011;40582;53.100;6.686;2023-04-25T07:25:04;17.50;;;3.17;;
54683;SDS011;40582;53.100;6.686;2023-04-25T07:27:30;16.75;;;3.47;;
54683;SDS011;40582;53.100;6.686;2023-04-25T07:29:56;12.43;;;2.92;;
54683;SDS011;40582;53.100;6.686;2023-04-25T07:32:22;17.55;;;2.70;;
54683;SDS011;40582;53.100;6.686;2023-04-25T07:34:48;13.35;;;3.13;;
54683;SDS011;40582;53.100;6.686;2023-04-25T07:37:14;9.55;;;2.50;;
54683;SDS011;40582;53.100;6.686;2023-04-25T07:39:40;15.20;;;2.95;;
54683;SDS011;40582;53.100;6.686;2023-04-25T07:42:06;11.82;;;2.58;;
54683;SDS011;40582;53.100;6.686;2023-04-25T07:44:35;14.25;;;2.50;;
54683;SDS011;40582;53.100;6.686;2023-04-25T07:47:05;13.93;;;2.80;;
54683;SDS011;40582;53.100;6.686;2023-04-25T07:49:37;9.07;;;2.70;;
54683;SDS011;40582;53.100;6.686;2023-04-25T07:52:05;7.55;;;2.20;;
54683;SDS011;40582;53.100;6.686;2023-04-25T07:54:31;11.70;;;2.50;;
54683;SDS011;40582;53.100;6.686;2023-04-25T07:56:57;11.80;;;2.50;;
54683;SDS011;40582;53.100;6.686;2023-04-25T07:59:24;11.43;;;2.67;;
54683;SDS011;40582;53.100;6.686;2023-04-25T08:01:50;12.65;;;2.63;;
54683;SDS011;40582;53.100;6.686;2023-04-25T08:04:16;11.43;;;2.65;;
54683;SDS011;40582;53.100;6.686;2023-04-25T08:06:42;17.77;;;3.55;;
54683;SDS011;40582;53.100;6.686;2023-04-25T08:09:08;11.77;;;2.55;;
54683;SDS011;40582;53.100;6.686;2023-04-25T08:11:34;13.48;;;2.47;;
54683;SDS011;40582;53.100;6.686;2023-04-25T08:14:00;10.73;;;2.22;;
54683;SDS011;40582;53.100;6.686;2023-04-25T08:16:26;7.72;;;1.70;;
54683;SDS011;40582;53.100;6.686;2023-04-25T08:18:52;8.13;;;1.83;;
54683;SDS011;40582;53.100;6.686;2023-04-25T08:21:18;6.18;;;1.80;;
54683;SDS011;40582;53.100;6.686;2023-04-25T08:23:44;7.25;;;2.40;;
54683;SDS011;40582;53.100;6.686;2023-04-25T08:26:10;8.85;;;1.80;;
54683;SDS011;40582;53.100;6.686;2023-04-25T08:28:36;7.90;;;2.10;;
54683;SDS011;40582;53.100;6.686;2023-04-25T08:31:02;10.77;;;2.08;;
54683;SDS011;40582;53.100;6.686;2023-04-25T08:33:27;9.95;;;2.35;;
54683;SDS011;40582;53.100;6.686;2023-04-25T08:35:54;7.90;;;1.30;;
54683;SDS011;40582;53.100;6.686;2023-04-25T08:38:19;3.08;;;1.10;;
54683;SDS011;40582;53.100;6.686;2023-04-25T08:40:46;7.22;;;1.35;;
54683;SDS011;40582;53.100;6.686;2023-04-25T08:43:15;4.32;;;1.52;;
54683;SDS011;40582;53.100;6.686;2023-04-25T08:45:43;5.63;;;1.58;;
54683;SDS011;40582;53.100;6.686;2023-04-25T08:48:13;5.30;;;1.30;;
54683;SDS011;40582;53.100;6.686;2023-04-25T08:50:51;6.03;;;1.50;;
54683;SDS011;40582;53.100;6.686;2023-04-25T08:53:39;4.28;;;1.50;;
54683;SDS011;40582;53.100;6.686;2023-04-25T08:56:07;5.53;;;1.63;;
54683;SDS011;40582;53.100;6.686;2023-04-25T08:58:38;7.32;;;1.67;;
54683;SDS011;40582;53.100;6.686;2023-04-25T09:01:04;4.63;;;1.35;;
54683;SDS011;40582;53.100;6.686;2023-04-25T09:03:30;6.50;;;1.75;;
54683;SDS011;40582;53.100;6.686;2023-04-25T09:05:56;4.15;;;1.50;;
54683;SDS011;40582;53.100;6.686;2023-04-25T09:08:22;3.95;;;1.67;;
54683;SDS011;40582;53.100;6.686;2023-04-25T09:10:48;8.48;;;1.90;;
54683;SDS011;40582;53.100;6.686;2023-04-25T09:13:14;12.57;;;1.88;;
54683;SDS011;40582;53.100;6.686;2023-04-25T09:15:51;11.88;;;2.38;;
54683;SDS011;40582;53.100;6.686;2023-04-25T09:18:25;6.35;;;1.58;;
54683;SDS011;40582;53.100;6.686;2023-04-25T09:20:55;8.45;;;2.03;;
54683;SDS011;40582;53.100;6.686;2023-04-25T09:23:39;11.05;;;2.30;;
54683;SDS011;40582;53.100;6.686;2023-04-25T09:26:06;8.25;;;1.65;;
54683;SDS011;40582;53.100;6.686;2023-04-25T09:28:33;6.57;;;1.90;;
54683;SDS011;40582;53.100;6.686;2023-04-25T09:31:00;9.32;;;2.45;;
54683;SDS011;40582;53.100;6.686;2023-04-25T09:33:27;11.82;;;2.33;;
54683;SDS011;40582;53.100;6.686;2023-04-25T09:35:56;9.23;;;1.77;;
54683;SDS011;40582;53.100;6.686;2023-04-25T09:38:40;11.73;;;2.80;;
54683;SDS011;40582;53.100;6.686;2023-04-25T09:41:07;9.82;;;2.50;;
54683;SDS011;40582;53.100;6.686;2023-04-25T09:43:34;10.13;;;2.47;;
54683;SDS011;40582;53.100;6.686;2023-04-25T09:46:00;7.57;;;2.10;;
54683;SDS011;40582;53.100;6.686;2023-04-25T09:48:27;10.25;;;2.50;;
54683;SDS011;40582;53.100;6.686;2023-04-25T09:53:52;5.75;;;1.58;;
54683;SDS011;40582;53.100;6.686;2023-04-25T09:56:18;9.77;;;1.88;;
54683;SDS011;40582;53.100;6.686;2023-04-25T09:58:45;4.63;;;1.70;;
54683;SDS011;40582;53.100;6.686;2023-04-25T10:01:13;9.05;;;1.73;;
54683;SDS011;40582;53.100;6.686;2023-04-25T10:03:41;7.80;;;1.67;;
54683;SDS011;40582;53.100;6.686;2023-04-25T10:06:29;14.77;;;3.00;;
54683;SDS011;40582;53.100;6.686;2023-04-25T10:08:54;11.68;;;2.15;;
54683;SDS011;40582;53.100;6.686;2023-04-25T10:11:21;13.25;;;2.70;;
54683;SDS011;40582;53.100;6.686;2023-04-25T10:13:51;14.95;;;2.30;;
54683;SDS011;40582;53.100;6.686;2023-04-25T10:16:17;11.18;;;2.50;;
54683;SDS011;40582;53.100;6.686;2023-04-25T10:18:43;7.93;;;2.00;;
54683;SDS011;40582;53.100;6.686;2023-04-25T10:21:09;11.55;;;2.13;;
54683;SDS011;40582;53.100;6.686;2023-04-25T10:23:36;10.38;;;2.35;;
54683;SDS011;40582;53.100;6.686;2023-04-25T10:26:03;14.05;;;2.97;;
54683;SDS011;40582;53.100;6.686;2023-04-25T10:28:29;12.75;;;2.42;;
54683;SDS011;40582;53.100;6.686;2023-04-25T10:31:04;8.45;;;2.10;;
54683;SDS011;40582;53.100;6.686;2023-04-25T10:33:35;12.45;;;3.33;;
54683;SDS011;40582;53.100;6.686;2023-04-25T10:36:09;16.65;;;2.92;;
54683;SDS011;40582;53.100;6.686;2023-04-25T10:38:39;12.32;;;3.05;;
54683;SDS011;40582;53.100;6.686;2023-04-25T10:41:07;9.50;;;2.40;;
54683;SDS011;40582;53.100;6.686;2023-04-25T10:43:35;9.07;;;2.30;;
54683;SDS011;40582;53.100;6.686;2023-04-25T10:46:12;15.13;;;2.80;;
54683;SDS011;40582;53.100;6.686;2023-04-25T10:48:38;18.73;;;3.15;;
54683;SDS011;40582;53.100;6.686;2023-04-25T10:51:20;12.80;;;2.60;;
54683;SDS011;40582;53.100;6.686;2023-04-25T10:59:09;13.93;;;2.70;;
54683;SDS011;40582;53.100;6.686;2023-04-25T11:01:42;19.38;;;3.25;;
54683;SDS011;40582;53.100;6.686;2023-04-25T11:09:48;10.77;;;2.65;;
54683;SDS011;40582;53.100;6.686;2023-04-25T11:12:15;8.63;;;1.95;;
54683;SDS011;40582;53.100;6.686;2023-04-25T11:14:42;9.85;;;2.50;;
54683;SDS011;40582;53.100;6.686;2023-04-25T11:17:08;11.70;;;2.03;;
54683;SDS011;40582;53.100;6.686;2023-04-25T11:19:35;7.28;;;2.10;;
54683;SDS011;40582;53.100;6.686;2023-04-25T11:22:01;7.95;;;2.42;;
54683;SDS011;40582;53.100;6.686;2023-04-25T11:24:32;13.63;;;2.35;;
54683;SDS011;40582;53.100;6.686;2023-04-25T11:26:59;15.45;;;2.55;;
54683;SDS011;40582;53.100;6.686;2023-04-25T11:29:30;14.05;;;2.60;;
54683;SDS011;40582;53.100;6.686;2023-04-25T11:31:57;13.65;;;2.60;;
54683;SDS011;40582;53.100;6.686;2023-04-25T11:34:23;10.75;;;2.42;;
54683;SDS011;40582;53.100;6.686;2023-04-25T11:36:50;8.55;;;2.25;;
54683;SDS011;40582;53.100;6.686;2023-04-25T11:39:18;12.65;;;2.20;;
54683;SDS011;40582;53.100;6.686;2023-04-25T11:41:44;9.25;;;2.20;;
54683;SDS011;40582;53.100;6.686;2023-04-25T11:44:10;10.00;;;2.40;;
54683;SDS011;40582;53.100;6.686;2023-04-25T11:46:36;15.80;;;2.15;;
54683;SDS011;40582;53.100;6.686;2023-04-25T11:49:02;10.07;;;1.92;;
54683;SDS011;40582;53.100;6.686;2023-04-25T11:51:29;7.55;;;2.10;;
54683;SDS011;40582;53.100;6.686;2023-04-25T11:54:02;8.38;;;2.17;;
54683;SDS011;40582;53.100;6.686;2023-04-25T11:56:28;7.43;;;2.15;;
54683;SDS011;40582;53.100;6.686;2023-04-25T11:58:57;11.45;;;3.50;;
54683;SDS011;40582;53.100;6.686;2023-04-25T12:01:28;14.80;;;2.40;;
54683;SDS011;40582;53.100;6.686;2023-04-25T12:03:55;13.43;;;2.15;;
54683;SDS011;40582;53.100;6.686;2023-04-25T12:06:25;6.18;;;1.92;;
54683;SDS011;40582;53.100;6.686;2023-04-25T12:08:59;8.10;;;2.13;;
54683;SDS011;40582;53.100;6.686;2023-04-25T12:11:32;9.38;;;2.10;;
54683;SDS011;40582;53.100;6.686;2023-04-25T12:14:02;11.32;;;2.25;;
54683;SDS011;40582;53.100;6.686;2023-04-25T12:16:29;9.70;;;2.30;;
54683;SDS011;40582;53.100;6.686;2023-04-25T12:18:55;7.68;;;2.40;;
54683;SDS011;40582;53.100;6.686;2023-04-25T12:21:22;12.63;;;2.97;;
54683;SDS011;40582;53.100;6.686;2023-04-25T12:23:48;14.57;;;2.15;;
54683;SDS011;40582;53.100;6.686;2023-04-25T12:26:13;10.50;;;2.28;;
54683;SDS011;40582;53.100;6.686;2023-04-25T12:28:39;18.98;;;2.42;;
54683;SDS011;40582;53.100;6.686;2023-04-25T12:31:10;10.43;;;2.08;;
54683;SDS011;40582;53.100;6.686;2023-04-25T12:33:36;7.28;;;2.10;;
54683;SDS011;40582;53.100;6.686;2023-04-25T12:36:03;12.48;;;2.55;;
54683;SDS011;40582;53.100;6.686;2023-04-25T12:38:37;12.77;;;3.08;;
54683;SDS011;40582;53.100;6.686;2023-04-25T12:41:04;9.98;;;2.08;;
54683;SDS011;40582;53.100;6.686;2023-04-25T12:43:31;9.73;;;2.20;;
54683;SDS011;40582;53.100;6.686;2023-04-25T12:45:57;11.43;;;2.30;;
54683;SDS011;40582;53.100;6.686;2023-04-25T12:48:23;7.75;;;2.42;;
54683;SDS011;40582;53.100;6.686;2023-04-25T12:50:49;8.60;;;2.08;;
54683;SDS011;40582;53.100;6.686;2023-04-25T12:55:46;11.80;;;1.98;;
54683;SDS011;40582;53.100;6.686;2023-04-25T12:58:15;8.70;;;2.10;;
54683;SDS011;40582;53.100;6.686;2023-04-25T13:00:42;9.23;;;2.40;;
54683;SDS011;40582;53.100;6.686;2023-04-25T13:03:08;13.07;;;2.55;;
54683;SDS011;40582;53.100;6.686;2023-04-25T13:05:36;5.97;;;2.15;;
54683;SDS011;40582;53.100;6.686;2023-04-25T13:08:02;9.13;;;2.28;;
54683;SDS011;40582;53.100;6.686;2023-04-25T13:10:29;8.93;;;2.63;;
54683;SDS011;40582;53.100;6.686;2023-04-25T13:12:55;10.70;;;2.35;;
54683;SDS011;40582;53.100;6.686;2023-04-25T13:15:20;12.68;;;2.15;;
54683;SDS011;40582;53.100;6.686;2023-04-25T13:17:46;7.47;;;1.77;;
54683;SDS011;40582;53.100;6.686;2023-04-25T13:20:12;9.30;;;1.85;;
54683;SDS011;40582;53.100;6.686;2023-04-25T13:22:40;5.30;;;1.48;;
54683;SDS011;40582;53.100;6.686;2023-04-25T13:25:08;11.77;;;2.00;;
54683;SDS011;40582;53.100;6.686;2023-04-25T13:27:34;18.20;;;2.40;;
54683;SDS011;40582;53.100;6.686;2023-04-25T13:30:02;6.90;;;2.05;;
54683;SDS011;40582;53.100;6.686;2023-04-25T13:32:38;13.80;;;2.67;;
54683;SDS011;40582;53.100;6.686;2023-04-25T13:35:08;15.60;;;2.78;;
54683;SDS011;40582;53.100;6.686;2023-04-25T13:37:35;9.95;;;2.50;;
54683;SDS011;40582;53.100;6.686;2023-04-25T13:40:03;12.05;;;2.80;;
54683;SDS011;40582;53.100;6.686;2023-04-25T13:42:31;14.20;;;2.65;;
54683;SDS011;40582;53.100;6.686;2023-04-25T13:44:57;13.10;;;3.05;;
54683;SDS011;40582;53.100;6.686;2023-04-25T13:47:22;11.50;;;3.15;;
54683;SDS011;40582;53.100;6.686;2023-04-25T13:49:49;13.30;;;3.03;;
54683;SDS011;40582;53.100;6.686;2023-04-25T13:52:15;15.15;;;2.85;;
54683;SDS011;40582;53.100;6.686;2023-04-25T13:54:41;9.05;;;2.38;;
54683;SDS011;40582;53.100;6.686;2023-04-25T13:57:10;14.80;;;3.33;;
54683;SDS011;40582;53.100;6.686;2023-04-25T13:59:39;13.20;;;2.65;;
54683;SDS011;40582;53.100;6.686;2023-04-25T14:02:08;11.32;;;2.22;;
54683;SDS011;40582;53.100;6.686;2023-04-25T14:04:34;7.50;;;2.00;;
54683;SDS011;40582;53.100;6.686;2023-04-25T14:07:00;13.07;;;2.80;;
54683;SDS011;40582;53.100;6.686;2023-04-25T14:09:27;6.47;;;1.77;;
54683;SDS011;40582;53.100;6.686;2023-04-25T14:11:53;9.50;;;1.98;;
54683;SDS011;40582;53.100;6.686;2023-04-25T14:14:20;4.50;;;1.50;;
54683;SDS011;40582;53.100;6.686;2023-04-25T14:16:47;7.55;;;1.52;;
54683;SDS011;40582;53.100;6.686;2023-04-25T14:19:17;9.13;;;1.98;;
54683;SDS011;40582;53.100;6.686;2023-04-25T14:21:43;12.02;;;2.42;;
54683;SDS011;40582;53.100;6.686;2023-04-25T14:24:09;8.10;;;2.10;;
54683;SDS011;40582;53.100;6.686;2023-04-25T14:26:36;10.63;;;2.50;;
54683;SDS011;40582;53.100;6.686;2023-04-25T14:29:02;14.77;;;2.45;;
54683;SDS011;40582;53.100;6.686;2023-04-25T14:31:28;14.90;;;2.75;;
54683;SDS011;40582;53.100;6.686;2023-04-25T14:33:54;9.10;;;2.78;;
54683;SDS011;40582;53.100;6.686;2023-04-25T14:36:20;17.58;;;2.60;;
54683;SDS011;40582;53.100;6.686;2023-04-25T14:38:46;8.90;;;2.45;;
54683;SDS011;40582;53.100;6.686;2023-04-25T14:41:12;10.68;;;2.63;;
54683;SDS011;40582;53.100;6.686;2023-04-25T14:43:38;13.20;;;2.70;;
54683;SDS011;40582;53.100;6.686;2023-04-25T14:46:07;9.43;;;2.85;;
54683;SDS011;40582;53.100;6.686;2023-04-25T14:48:33;11.93;;;2.20;;
54683;SDS011;40582;53.100;6.686;2023-04-25T14:50:59;9.20;;;2.55;;
54683;SDS011;40582;53.100;6.686;2023-04-25T14:53:25;11.05;;;2.38;;